Home   Weather   India   Ajmer   Past weeks
Flag for India

Past Weather in Ajmer, Rajasthan, India — Yesterday and Last 2 Weeks

Currently: 64 °F. Haze. (Weather station: Jaipur / Sanganer, India). See more current weather

Past Weather in Ajmer — Graph

°F

Ajmer Temperature Yesterday

Maximum temperature yesterday: 81 °F (at 2:30 pm)
Minimum temperature yesterday: 55 °F (at 5:00 am)
Average temperature yesterday: 67 °F

High & Low Weather Summary for the Past Weeks

 TemperatureHumidityPressure
High82 °F (Nov 21, 1:30 pm)88% (Nov 30, 4:00 am)30.33 "Hg (Nov 30, 4:00 am)
Low52 °F (Nov 24, 7:00 am)14% (Nov 23, 2:30 pm)29.86 "Hg (Nov 27, 3:30 pm)
Average68 °F50%30.01 "Hg
* Reported Nov 15 7:30 pm — Nov 30 7:30 pm, Ajmer. Weather by CustomWeather, © 2022

Note: Actual official high and low records may vary slightly from our data, if they occured in-between our weather recording intervals... More about our weather records

Ajmer Weather History for the Previous 24 Hours

Scroll right to see more
 ConditionsComfort  
Time TempWeatherWind HumidityBarometerVisibility
7:30 pm
Wed, Nov 30
66 °FHaze.1 mph60%30.04 "Hg2 mi
7:00 pm68 °FHaze.No wind53%30.04 "Hg2 mi
6:30 pm68 °FHaze.No wind53%30.04 "Hg2 mi
6:00 pm72 °FHaze.1 mph44%30.01 "Hg2 mi
5:30 pm73 °FHaze.2 mph41%30.01 "Hg3 mi
5:00 pm75 °FClear.2 mph34%30.01 "Hg4 mi
4:30 pm77 °FClear.3 mph32%30.01 "Hg4 mi
4:00 pm77 °FClear.5 mph32%30.01 "Hg4 mi
3:30 pm79 °FClear.6 mph28%30.01 "Hg5 mi
3:00 pm79 °FClear.6 mph28%30.04 "Hg5 mi
2:30 pm79 °FClear.7 mph30%30.04 "Hg4 mi
2:00 pm79 °FHaze.7 mph28%30.04 "Hg3 mi
1:30 pm79 °FHaze.9 mph30%30.07 "Hg2 mi
1:00 pm77 °FHaze.7 mph32%30.07 "Hg2 mi
12:30 pm77 °FHaze.3 mph34%30.07 "Hg2 mi
12:00 pm77 °FHaze.3 mph36%30.09 "Hg2 mi
11:30 am75 °FHaze.3 mph41%30.09 "Hg2 mi
11:00 am73 °FHaze.5 mph44%30.12 "Hg2 mi
10:30 am72 °FHaze.7 mph47%30.12 "Hg2 mi
10:00 am70 °FClear.5 mph53%30.12 "Hg1 mi
9:30 am68 °FClear.5 mph60%30.12 "Hg1 mi
9:00 am66 °FClear.3 mph73%30.09 "Hg1 mi
8:30 am63 °FClear.No wind83%30.09 "Hg1 mi
8:00 am57 °FClear.No wind82%30.09 "Hg1 mi
7:30 am55 °FClear.2 mph82%30.07 "Hg1 mi
7:00 am54 °FClear.No wind88%30.07 "Hg1 mi
6:30 am55 °FClear.2 mph82%30.04 "Hg1 mi
5:00 am57 °FClear.No wind82%30.04 "Hg1 mi
4:30 am55 °FClear.2 mph88%30.04 "Hg1 mi
4:00 am55 °FHaze.2 mph88%30.01 "Hg1 mi
3:30 am55 °FHaze.2 mph82%30.04 "Hg1 mi
3:00 am55 °FHaze.2 mph82%30.04 "Hg1 mi
2:30 am59 °FHaze.No wind77%30.04 "Hg1 mi
2:00 am59 °FHaze.No wind77%30.04 "Hg1 mi
1:30 am59 °FHaze.No wind77%30.04 "Hg1 mi
1:00 am61 °FHaze.No wind72%30.04 "Hg1 mi
12:30 am61 °FHaze.No wind72%30.04 "Hg1 mi
12:00 am61 °FHaze.2 mph72%30.04 "Hg1 mi
11:30 pm
Tue, Nov 29
61 °FHaze.No wind68%30.04 "Hg1 mi
11:00 pm63 °FHaze.No wind64%30.04 "Hg1 mi
10:30 pm63 °FHaze.No wind64%30.04 "Hg1 mi
9:30 pm64 °FHaze.3 mph64%30.04 "Hg1 mi
9:00 pm64 °FHaze.5 mph64%30.04 "Hg1 mi
8:30 pm64 °FHaze.5 mph60%30.04 "Hg1 mi
8:00 pm66 °FHaze.No wind60%30.04 "Hg1 mi
Weather by CustomWeather, © 2022

See weather overview